Time;durP1;ratioP1;P1;durP2;ratioP2;P2;SDS_P1;SDS_P2;PMS_P1;PMS_P2;Temp;Humidity;BMP_temperature;BMP_pressure;BME280_temperature;BME280_humidity;BME280_pressure;Samples;Min_cycle;Max_cycle;Signal;HPM_P1;HPM_P2
2022/08/28 00:00:50;;;;;;;13.43;5.72;;;;;;;25.19;47.88;94786.19;4903108;28;20070;-64
2022/08/28 00:03:15;;;;;;;9.23;5.28;;;;;;;24.82;47.50;94725.53;4919164;28;20078;-63
2022/08/28 00:05:41;;;;;;;11.07;5.00;;;;;;;25.01;47.55;94749.50;4920243;28;20044;-60
2022/08/28 00:08:08;;;;;;;9.68;5.05;;;;;;;24.79;47.75;94716.38;4918616;28;20024;-60
2022/08/28 00:10:33;;;;;;;10.18;5.22;;;;;;;25.16;47.23;94787.97;4920454;28;20042;-64
2022/08/28 00:12:59;;;;;;;11.00;5.40;;;;;;;24.46;47.46;94678.03;4917483;28;20522;-63
2022/08/28 00:15:27;;;;;;;10.93;4.90;;;;;;;25.11;47.42;94775.16;4916675;28;20127;-64
2022/08/28 00:17:53;;;;;;;10.32;5.38;;;;;;;24.82;47.28;94743.38;4915510;28;20040;-65
2022/08/28 00:20:19;;;;;;;10.05;4.78;;;;;;;25.09;47.58;94780.38;4920702;28;20028;-63
2022/08/28 00:22:45;;;;;;;8.25;4.97;;;;;;;25.18;47.23;94790.91;4907389;28;20020;-65
2022/08/28 00:25:11;;;;;;;7.85;4.53;;;;;;;25.10;47.45;94765.47;4915960;28;20499;-64
2022/08/28 00:27:52;;;;;;;10.77;5.10;;;;;;;24.91;47.70;94756.59;4883927;28;20032;-64
2022/08/28 00:30:25;;;;;;;9.93;5.22;;;;;;;25.01;47.77;94781.56;4902809;28;20032;-63
2022/08/28 00:32:52;;;;;;;8.45;5.25;;;;;;;24.88;47.66;94757.66;4918649;28;20102;-60
2022/08/28 00:35:18;;;;;;;9.65;5.43;;;;;;;24.86;48.10;94754.72;4918577;28;20094;-63
2022/08/28 00:37:46;;;;;;;8.52;4.93;;;;;;;24.61;47.42;94700.09;4927853;28;20031;-64
2022/08/28 00:40:13;;;;;;;9.15;4.78;;;;;;;24.70;47.82;94724.25;4918909;28;20071;-64
2022/08/28 00:42:38;;;;;;;8.05;5.35;;;;;;;24.50;48.04;94722.16;4919173;28;20044;-64
2022/08/28 00:45:05;;;;;;;8.55;4.97;;;;;;;24.74;48.31;94757.44;4920999;28;20109;-64
2022/08/28 00:47:31;;;;;;;8.02;4.97;;;;;;;24.99;48.51;94790.28;4904271;28;20062;-66
2022/08/28 00:49:56;;;;;;;7.90;4.57;;;;;;;25.01;48.34;94797.94;4919226;28;20027;-64
2022/08/28 00:52:23;;;;;;;7.97;4.82;;;;;;;25.01;47.90;94787.75;4920231;28;20054;-66
2022/08/28 00:55:15;;;;;;;6.82;4.80;;;;;;;24.97;48.12;94790.03;4901908;28;20048;-65
2022/08/28 00:57:52;;;;;;;10.32;5.45;;;;;;;24.83;48.21;94777.63;4916240;28;20127;-66
2022/08/28 01:00:33;;;;;;;13.60;4.97;;;;;;;24.64;48.04;94748.19;4919394;28;20051;-63
2022/08/28 01:02:58;;;;;;;9.82;5.25;;;;;;;24.92;48.37;94785.41;4918677;28;20147;-63
2022/08/28 01:05:24;;;;;;;8.07;4.90;;;;;;;24.52;48.30;94741.47;4919510;28;20181;-65
2022/08/28 01:07:50;;;;;;;7.57;4.30;;;;;;;24.91;48.54;94800.31;4918981;28;20035;-65
2022/08/28 01:10:17;;;;;;;9.23;4.88;;;;;;;24.82;48.58;94781.59;4919030;28;20486;-64
2022/08/28 01:12:43;;;;;;;11.05;5.32;;;;;;;24.87;48.42;94772.59;4885874;28;20048;-64
2022/08/28 01:15:11;;;;;;;10.75;5.20;;;;;;;24.96;48.19;94780.38;4919935;28;20044;-63
2022/08/28 01:17:37;;;;;;;10.02;5.00;;;;;;;24.92;48.50;94796.34;4906331;28;20040;-63
2022/08/28 01:20:05;;;;;;;7.90;5.20;;;;;;;24.96;48.34;94785.84;4900702;28;20040;-66
2022/08/28 01:22:37;;;;;;;7.95;5.43;;;;;;;24.80;48.61;94772.47;4899353;28;20043;-64
2022/08/28 01:25:13;;;;;;;8.35;5.50;;;;;;;24.90;48.31;94792.66;4899068;28;20055;-63
2022/08/28 01:27:40;;;;;;;10.93;5.30;;;;;;;24.82;48.32;94789.81;4912100;28;20122;-62
2022/08/28 01:30:09;;;;;;;12.20;5.70;;;;;;;24.86;48.96;94792.97;4895645;28;20043;-65
2022/08/28 01:32:37;;;;;;;8.85;5.55;;;;;;;24.76;48.67;94798.63;4902342;28;20036;-65
2022/08/28 01:35:05;;;;;;;11.23;5.20;;;;;;;24.68;48.40;94759.53;4897337;28;20445;-65
2022/08/28 01:37:31;;;;;;;9.15;5.75;;;;;;;24.54;48.52;94749.84;4911651;28;20519;-64
2022/08/28 01:39:56;;;;;;;7.85;5.18;;;;;;;24.63;48.74;94774.75;4919438;28;20044;-64
2022/08/28 01:42:22;;;;;;;7.57;4.72;;;;;;;24.80;48.69;94799.03;4919847;28;20039;-60
2022/08/28 01:44:49;;;;;;;11.70;5.82;;;;;;;24.17;48.85;94700.88;4919082;28;20051;-61
2022/08/28 01:47:14;;;;;;;11.02;5.20;;;;;;;24.65;48.94;94776.97;4902541;28;20047;-64
2022/08/28 01:49:40;;;;;;;7.35;5.03;;;;;;;24.81;48.61;94797.78;4921055;28;20031;-63
2022/08/28 01:52:05;;;;;;;7.32;5.28;;;;;;;24.10;48.68;94682.38;4919223;28;20032;-64
2022/08/28 01:54:31;;;;;;;9.40;5.53;;;;;;;24.48;49.24;94747.25;4918361;28;20418;-64
2022/08/28 01:56:56;;;;;;;10.10;4.75;;;;;;;24.74;48.91;94790.97;4919043;28;20032;-63
2022/08/28 01:59:22;;;;;;;9.57;5.60;;;;;;;24.65;48.85;94787.88;4916922;28;20086;-62
2022/08/28 02:01:47;;;;;;;11.13;5.82;;;;;;;24.63;49.45;94801.31;4918744;28;20039;-65
2022/08/28 02:04:13;;;;;;;8.93;5.47;;;;;;;24.14;48.82;94712.81;4916810;28;20075;-65
2022/08/28 02:06:40;;;;;;;8.95;5.10;;;;;;;24.53;49.20;94764.78;4918362;28;20051;-63
2022/08/28 02:09:05;;;;;;;12.02;5.60;;;;;;;24.76;49.01;94804.09;4917746;28;20047;-62
2022/08/28 02:11:31;;;;;;;9.27;5.28;;;;;;;24.67;49.03;94796.31;4916001;28;20466;-64
2022/08/28 02:13:57;;;;;;;9.98;5.00;;;;;;;24.67;49.35;94801.78;4910978;28;20044;-62
2022/08/28 02:16:23;;;;;;;8.70;5.20;;;;;;;24.33;49.60;94751.72;4913559;28;20039;-62
2022/08/28 02:18:49;;;;;;;11.10;5.22;;;;;;;24.61;49.45;94793.66;4917730;28;20043;-61
2022/08/28 02:21:14;;;;;;;9.07;5.47;;;;;;;24.01;49.54;94704.59;4919023;28;20048;-64
2022/08/28 02:23:41;;;;;;;9.20;5.25;;;;;;;24.53;49.58;94770.25;4913699;28;20044;-63
2022/08/28 02:26:07;;;;;;;10.02;5.15;;;;;;;24.32;49.38;94744.00;4924347;29;20083;-62
2022/08/28 02:28:33;;;;;;;9.68;5.25;;;;;;;24.30;49.03;94741.81;4928429;28;20028;-64
2022/08/28 02:30:58;;;;;;;8.75;5.03;;;;;;;24.59;49.62;94800.91;4922261;28;20043;-60
2022/08/28 02:33:24;;;;;;;8.68;5.28;;;;;;;24.00;49.15;94719.47;4920555;28;20090;-62
2022/08/28 02:35:49;;;;;;;8.25;5.30;;;;;;;24.62;49.28;94799.84;4923306;28;20048;-64
2022/08/28 02:38:16;;;;;;;8.60;5.32;;;;;;;24.61;49.19;94804.59;4922389;28;20028;-63
2022/08/28 02:40:41;;;;;;;8.70;5.40;;;;;;;24.52;49.56;94787.88;4920116;28;20460;-60
2022/08/28 02:43:07;;;;;;;7.85;4.90;;;;;;;24.07;49.41;94729.78;4901239;28;20066;-61
2022/08/28 02:45:32;;;;;;;9.15;5.28;;;;;;;24.59;49.31;94803.66;4917251;28;20119;-61
2022/08/28 02:48:00;;;;;;;9.98;5.30;;;;;;;24.49;49.31;94797.09;4921405;28;20075;-61
2022/08/28 02:50:25;;;;;;;10.13;5.38;;;;;;;24.52;49.34;94796.06;4930020;28;20051;-61
2022/08/28 02:52:52;;;;;;;9.63;4.90;;;;;;;24.59;49.37;94811.84;4917397;28;20035;-61
2022/08/28 02:55:18;;;;;;;7.75;4.90;;;;;;;23.88;49.76;94729.13;4919332;28;20058;-61
2022/08/28 02:57:45;;;;;;;10.20;5.20;;;;;;;24.50;49.68;94814.97;4917690;28;20782;-61
2022/08/28 03:00:13;;;;;;;9.80;5.43;;;;;;;24.48;49.69;94812.00;4928207;28;20044;-65
2022/08/28 03:02:39;;;;;;;11.00;5.60;;;;;;;24.37;49.90;94806.72;4900416;28;20047;-63
2022/08/28 03:05:05;;;;;;;9.55;5.28;;;;;;;24.47;49.15;94805.09;4920917;28;20019;-65
2022/08/28 03:07:31;;;;;;;6.82;5.07;;;;;;;24.40;49.29;94805.69;4921602;28;20035;-67
2022/08/28 03:09:56;;;;;;;6.55;4.88;;;;;;;24.39;49.45;94809.66;4919229;28;20043;-61
2022/08/28 03:12:23;;;;;;;10.15;5.22;;;;;;;24.36;49.40;94805.25;4918314;28;20039;-67
2022/08/28 03:14:52;;;;;;;9.20;4.90;;;;;;;24.51;49.38;94813.69;4921995;29;20047;-68
2022/08/28 03:17:17;;;;;;;9.20;5.23;;;;;;;24.43;49.29;94805.38;4923316;28;20073;-67
2022/08/28 03:19:43;;;;;;;7.88;5.45;;;;;;;24.43;49.77;94810.09;4922435;29;20319;-68
2022/08/28 03:22:09;;;;;;;8.27;5.00;;;;;;;24.43;49.34;94818.31;4917059;28;20039;-65
2022/08/28 03:24:36;;;;;;;10.35;5.72;;;;;;;24.45;49.04;94813.81;4923270;28;20091;-68
2022/08/28 03:27:02;;;;;;;10.25;5.78;;;;;;;24.43;49.48;94810.09;4918084;28;20665;-62
2022/08/28 03:29:27;;;;;;;9.40;5.22;;;;;;;24.36;49.74;94811.47;4920567;28;20134;-66
2022/08/28 03:31:53;;;;;;;9.00;5.43;;;;;;;24.41;49.52;94818.09;4925466;28;20024;-68
2022/08/28 03:34:18;;;;;;;11.50;5.97;;;;;;;24.34;49.72;94813.22;4922736;28;20479;-64
2022/08/28 03:36:43;;;;;;;10.20;5.32;;;;;;;24.38;49.72;94813.69;4921406;28;20047;-66
2022/08/28 03:39:09;;;;;;;10.38;5.68;;;;;;;24.27;49.84;94808.34;4926648;28;20412;-63
2022/08/28 03:41:35;;;;;;;10.07;5.60;;;;;;;24.39;49.52;94820.59;4921661;28;20178;-61
2022/08/28 03:44:00;;;;;;;8.30;5.20;;;;;;;24.39;49.29;94821.34;4923313;28;20040;-69
2022/08/28 03:46:27;;;;;;;10.10;5.50;;;;;;;24.39;49.21;94820.59;4920347;28;20829;-68
2022/08/28 03:48:52;;;;;;;8.60;5.55;;;;;;;24.35;49.70;94831.09;4922753;28;20109;-67
2022/08/28 03:51:23;;;;;;;8.65;5.47;;;;;;;24.23;49.71;94816.09;4933976;28;20043;-61
2022/08/28 03:53:48;;;;;;;9.38;5.10;;;;;;;24.34;49.93;94829.59;4903526;28;21276;-66
2022/08/28 03:56:20;;;;;;;9.68;5.45;;;;;;;24.30;49.47;94833.88;4906459;28;20034;-65
2022/08/28 03:58:47;;;;;;;11.93;5.20;;;;;;;24.20;49.78;94841.72;4922370;28;20487;-66
2022/08/28 04:01:12;;;;;;;12.30;5.50;;;;;;;24.27;49.75;94841.09;4917710;29;20071;-64
2022/08/28 04:03:38;;;;;;;10.07;5.32;;;;;;;24.22;50.13;94844.66;4919184;28;20092;-68
2022/08/28 04:06:03;;;;;;;6.30;5.00;;;;;;;24.22;50.30;94841.19;4919581;28;20069;-63
2022/08/28 04:08:29;;;;;;;9.27;5.90;;;;;;;24.18;49.83;94849.66;4907979;28;20128;-68
2022/08/28 04:10:54;;;;;;;10.07;5.78;;;;;;;24.24;49.87;94853.03;4914435;28;20046;-67
2022/08/28 04:13:20;;;;;;;8.32;4.80;;;;;;;24.26;50.21;94856.00;4919182;28;20091;-66
2022/08/28 04:15:54;;;;;;;9.75;5.20;;;;;;;24.18;50.02;94849.66;4911753;28;20036;-66
2022/08/28 04:18:19;;;;;;;8.65;5.32;;;;;;;24.24;50.09;94863.94;4905156;28;20104;-65
2022/08/28 04:20:45;;;;;;;9.98;5.68;;;;;;;23.63;49.68;94799.81;4908571;28;20055;-65
2022/08/28 04:23:10;;;;;;;8.40;5.00;;;;;;;24.26;50.17;94861.47;4911997;28;20031;-69
2022/08/28 04:25:38;;;;;;;8.40;5.28;;;;;;;24.20;49.72;94858.09;4911206;29;20028;-69
2022/08/28 04:28:04;;;;;;;9.23;5.07;;;;;;;24.28;50.21;94869.84;4907729;29;20036;-66
2022/08/28 04:30:29;;;;;;;10.98;5.72;;;;;;;24.24;50.03;94869.41;4909958;28;20102;-65
2022/08/28 04:32:55;;;;;;;9.02;5.57;;;;;;;24.07;50.51;94871.66;4909046;28;20032;-68
2022/08/28 04:35:20;;;;;;;9.27;4.97;;;;;;;24.02;50.77;94869.75;4906983;28;20035;-65
2022/08/28 04:37:46;;;;;;;9.63;5.00;;;;;;;24.17;50.30;94878.22;4911629;28;20479;-70
2022/08/28 04:40:13;;;;;;;8.25;4.95;;;;;;;24.19;50.35;94883.16;4909677;28;20059;-63
2022/08/28 04:42:39;;;;;;;9.30;5.07;;;;;;;24.10;51.04;94881.53;4916039;28;20058;-67
2022/08/28 04:45:05;;;;;;;9.07;5.82;;;;;;;24.00;50.45;94855.13;4912296;29;20523;-64
2022/08/28 04:47:34;;;;;;;10.38;5.70;;;;;;;24.21;50.72;94875.91;4914669;28;20397;-66
2022/08/28 04:50:00;;;;;;;9.45;5.70;;;;;;;24.16;50.47;94879.47;4896411;28;20032;-68
2022/08/28 04:52:26;;;;;;;8.80;4.97;;;;;;;24.21;50.29;94875.91;4897833;28;20031;-64
2022/08/28 04:54:51;;;;;;;10.68;5.63;;;;;;;24.18;50.69;94879.66;4897778;28;20083;-68
2022/08/28 04:57:17;;;;;;;9.30;5.38;;;;;;;24.24;50.94;94885.78;4900690;28;20419;-68
2022/08/28 04:59:43;;;;;;;10.25;5.40;;;;;;;24.27;50.67;94884.75;4903790;28;20415;-65
2022/08/28 05:02:09;;;;;;;10.20;5.13;;;;;;;24.25;51.19;94892.72;4899366;28;20107;-67
2022/08/28 05:04:34;;;;;;;8.98;5.72;;;;;;;24.23;51.45;94889.78;4900689;28;20024;-65
2022/08/28 05:07:00;;;;;;;10.82;5.60;;;;;;;24.24;51.02;94891.25;4894896;28;20278;-63
2022/08/28 05:09:25;;;;;;;9.93;5.30;;;;;;;24.26;51.13;94888.00;4894191;28;20036;-67
2022/08/28 05:11:52;;;;;;;8.15;5.45;;;;;;;24.31;51.21;94889.94;4888578;28;20589;-66
2022/08/28 05:14:18;;;;;;;8.45;5.05;;;;;;;24.30;50.98;94889.19;4886442;28;20115;-64
2022/08/28 05:16:48;;;;;;;9.13;5.30;;;;;;;24.20;51.41;94896.28;4890512;28;20112;-63
2022/08/28 05:19:14;;;;;;;;;;;;;;;24.19;51.71;94894.78;4892661;28;20035;-65
2022/08/28 05:21:41;;;;;;;9.63;5.25;;;;;;;24.18;51.12;94874.22;4886253;28;20287;-68
2022/08/28 05:24:07;;;;;;;9.57;5.50;;;;;;;24.15;51.13;94888.88;4891100;28;20052;-62
2022/08/28 05:26:32;;;;;;;11.25;5.40;;;;;;;24.14;50.67;94871.06;4891422;28;20051;-62
2022/08/28 05:28:58;;;;;;;14.27;6.10;;;;;;;24.18;51.01;94876.94;4900476;28;21359;-68
2022/08/28 05:31:24;;;;;;;16.17;6.15;;;;;;;24.18;51.14;94898.78;4900008;28;20036;-68
2022/08/28 05:33:50;;;;;;;12.65;6.05;;;;;;;24.20;51.39;94890.81;4891400;28;20055;-61
2022/08/28 05:36:16;;;;;;;12.35;5.35;;;;;;;24.16;51.19;94895.81;4885228;28;20051;-63
2022/08/28 05:38:42;;;;;;;10.60;5.40;;;;;;;24.28;51.21;94907.34;4887292;28;21156;-62
2022/08/28 05:41:07;;;;;;;12.30;5.50;;;;;;;23.84;51.43;94847.19;4898354;28;20048;-64
2022/08/28 05:43:33;;;;;;;10.32;5.63;;;;;;;24.27;51.77;94905.84;4884777;28;20071;-63
2022/08/28 05:46:00;;;;;;;11.18;5.35;;;;;;;24.42;51.37;94928.72;4890884;28;20044;-61
2022/08/28 05:48:30;;;;;;;9.00;5.80;;;;;;;24.48;51.61;94915.75;4901805;28;20067;-64
2022/08/28 05:51:19;;;;;;;9.30;5.85;;;;;;;24.56;50.98;94916.63;4905642;28;20055;-62
2022/08/28 05:53:45;;;;;;;11.00;5.70;;;;;;;24.60;51.13;94914.31;4903936;28;20087;-65
2022/08/28 05:56:12;;;;;;;14.65;5.60;;;;;;;24.69;50.97;94913.94;4907095;28;20075;-62
2022/08/28 05:58:39;;;;;;;11.95;6.28;;;;;;;24.59;50.61;94882.84;4914113;29;20040;-66
2022/08/28 06:01:10;;;;;;;10.88;5.93;;;;;;;24.92;50.13;94911.06;4912008;28;20036;-61
2022/08/28 06:03:36;;;;;;;13.27;6.25;;;;;;;24.85;49.89;94900.75;4911375;28;20047;-61
2022/08/28 06:06:01;;;;;;;12.32;6.28;;;;;;;24.95;49.30;94893.63;4908463;28;20226;-63
2022/08/28 06:08:28;;;;;;;10.82;6.20;;;;;;;25.09;49.40;94903.34;4911517;28;20040;-66
2022/08/28 06:10:54;;;;;;;11.93;5.50;;;;;;;25.11;48.81;94906.31;4913468;28;20101;-62
2022/08/28 06:13:20;;;;;;;13.77;5.85;;;;;;;24.70;48.69;94839.69;4908063;28;20036;-61
2022/08/28 06:15:46;;;;;;;11.95;5.80;;;;;;;25.25;48.09;94905.06;4911089;28;20491;-62
2022/08/28 06:18:11;;;;;;;11.45;5.60;;;;;;;25.30;47.92;94901.50;4915001;28;20046;-65
2022/08/28 06:20:41;;;;;;;9.60;5.22;;;;;;;25.20;47.93;94875.84;4911067;28;20051;-65
2022/08/28 06:23:08;;;;;;;9.57;5.45;;;;;;;25.53;48.34;94908.03;4918254;28;20048;-66
2022/08/28 06:25:40;;;;;;;9.77;6.30;;;;;;;25.54;47.51;94896.56;4906963;28;20276;-64
2022/08/28 06:28:06;;;;;;;12.20;5.82;;;;;;;25.66;48.01;94908.78;4911037;28;20036;-63
2022/08/28 06:30:35;;;;;;;8.38;5.53;;;;;;;25.75;47.93;94902.16;4915781;28;20146;-63
2022/08/28 06:33:02;;;;;;;12.00;6.00;;;;;;;25.45;47.35;94857.97;4913453;28;20047;-63
2022/08/28 06:35:27;;;;;;;9.15;5.72;;;;;;;25.45;47.41;94836.81;4909700;28;20048;-63
2022/08/28 06:37:53;;;;;;;11.23;5.85;;;;;;;25.56;47.38;94863.22;4905739;28;20044;-62
2022/08/28 06:40:18;;;;;;;10.10;5.90;;;;;;;25.98;47.21;94901.94;4916683;28;20094;-63
2022/08/28 06:42:44;;;;;;;11.27;5.50;;;;;;;26.05;47.30;94904.03;4907455;28;20356;-64
2022/08/28 06:45:11;;;;;;;12.02;6.15;;;;;;;26.14;46.81;94900.09;4923687;28;20040;-61
2022/08/28 06:47:36;;;;;;;12.70;6.25;;;;;;;26.03;47.06;94890.13;4909698;28;20048;-62
2022/08/28 06:50:02;;;;;;;11.32;5.53;;;;;;;25.83;46.38;94847.00;4909058;28;20044;-62
2022/08/28 06:52:29;;;;;;;10.75;5.90;;;;;;;26.44;46.16;94912.16;4908736;28;20562;-64
2022/08/28 06:54:54;;;;;;;10.38;5.45;;;;;;;26.48;46.24;94918.78;4912051;28;20044;-61
2022/08/28 06:57:21;;;;;;;8.35;5.70;;;;;;;26.32;46.36;94899.97;4912254;28;20040;-62
2022/08/28 06:59:48;;;;;;;10.35;5.75;;;;;;;26.50;46.56;94901.81;4908041;28;20036;-64
2022/08/28 07:02:13;;;;;;;9.90;5.30;;;;;;;26.58;46.01;94910.84;4908419;28;20035;-63
2022/08/28 07:04:39;;;;;;;9.20;5.72;;;;;;;26.51;46.08;94906.03;4912508;28;20044;-63
2022/08/28 07:07:05;;;;;;;10.40;6.60;;;;;;;26.77;45.93;94923.09;4908284;28;20477;-67
2022/08/28 07:09:30;;;;;;;9.30;5.57;;;;;;;26.72;45.98;94898.56;4911741;28;20040;-62
2022/08/28 07:11:56;;;;;;;12.27;6.60;;;;;;;26.97;45.77;94920.38;4907305;28;20182;-67
2022/08/28 07:14:22;;;;;;;13.23;6.78;;;;;;;26.87;45.72;94905.63;4891946;28;20044;-65
2022/08/28 07:16:47;;;;;;;13.32;6.00;;;;;;;26.67;45.14;94874.78;4915207;28;20052;-66
2022/08/28 07:19:14;;;;;;;10.68;6.25;;;;;;;26.85;45.68;94897.22;4917842;29;20434;-63
2022/08/28 07:21:42;;;;;;;9.32;5.43;;;;;;;27.02;45.52;94910.56;4919032;28;20040;-62
2022/08/28 07:24:09;;;;;;;10.43;5.70;;;;;;;26.78;45.31;94870.47;4922008;28;20115;-65
2022/08/28 07:26:34;;;;;;;13.13;6.10;;;;;;;27.11;45.14;94904.59;4921249;28;20047;-66
2022/08/28 07:29:02;;;;;;;11.63;6.80;;;;;;;27.33;44.84;94918.47;4920195;28;20052;-66
2022/08/28 07:31:27;;;;;;;11.27;7.28;;;;;;;27.05;44.54;94871.81;4914195;28;20519;-65
2022/08/28 07:33:53;;;;;;;11.52;6.10;;;;;;;27.36;45.38;94900.94;4916608;28;20035;-65
2022/08/28 07:36:21;;;;;;;11.10;5.30;;;;;;;27.15;44.33;94864.59;4920842;28;20101;-61
2022/08/28 07:38:46;;;;;;;11.80;6.10;;;;;;;27.27;44.88;94890.47;4904914;28;20142;-65
2022/08/28 07:41:17;;;;;;;12.10;5.60;;;;;;;27.38;44.90;94903.88;4919514;28;20123;-65
2022/08/28 07:46:28;;;;;;;11.30;5.40;;;;;;;27.17;47.24;94840.13;4919827;28;20046;-67
2022/08/28 07:48:53;;;;;;;9.48;5.43;;;;;;;27.57;45.42;94893.44;4900571;28;20048;-67
2022/08/28 07:51:19;;;;;;;12.88;5.38;;;;;;;27.27;45.78;94849.34;4905322;28;20036;-66
2022/08/28 07:53:44;;;;;;;8.30;5.45;;;;;;;27.67;45.84;94897.16;4899841;28;20114;-64
2022/08/28 07:56:10;;;;;;;9.65;5.53;;;;;;;27.76;46.37;94894.66;4900531;28;20179;-69
2022/08/28 07:58:36;;;;;;;11.93;5.70;;;;;;;27.55;46.37;94879.50;4899065;28;20040;-61
2022/08/28 08:01:02;;;;;;;11.90;5.43;;;;;;;27.55;45.75;94868.53;4900852;28;20839;-65
2022/08/28 08:03:29;;;;;;;10.40;6.25;;;;;;;27.65;45.61;94888.72;4900809;28;20033;-62
2022/08/28 08:06:01;;;;;;;10.70;5.88;;;;;;;27.82;45.91;94893.22;4899718;28;20512;-66
2022/08/28 08:08:27;;;;;;;9.25;6.00;;;;;;;27.88;45.01;94896.53;4890029;28;20119;-65
2022/08/28 08:11:01;;;;;;;11.50;5.88;;;;;;;27.97;44.93;94896.03;4894560;28;20037;-63
2022/08/28 08:13:28;;;;;;;11.77;5.25;;;;;;;28.02;45.02;94900.63;4900413;28;20075;-67
2022/08/28 08:15:59;;;;;;;9.85;5.80;;;;;;;28.13;43.44;94897.59;4902267;28;20138;-65
2022/08/28 08:18:24;;;;;;;8.45;5.72;;;;;;;28.03;44.46;94880.13;4891677;28;20105;-65
2022/08/28 08:20:50;;;;;;;10.65;5.45;;;;;;;28.10;44.86;94895.94;4902478;28;20094;-66
2022/08/28 08:23:16;;;;;;;11.57;5.80;;;;;;;27.92;44.00;94880.47;4904767;28;20488;-63
2022/08/28 08:25:55;;;;;;;16.23;6.18;;;;;;;27.83;43.86;94845.28;4903109;29;20123;-67
2022/08/28 08:28:22;;;;;;;12.45;5.40;;;;;;;28.26;43.95;94897.47;4903828;28;20035;-65
2022/08/28 08:30:47;;;;;;;11.75;5.68;;;;;;;28.17;43.89;94889.72;4902031;29;20043;-64
2022/08/28 08:33:13;;;;;;;10.95;5.80;;;;;;;28.21;43.97;94895.63;4905510;28;20495;-63
2022/08/28 08:35:38;;;;;;;11.52;5.10;;;;;;;27.85;43.66;94870.19;4903521;28;20041;-66
2022/08/28 08:38:05;;;;;;;11.65;5.63;;;;;;;28.41;43.71;94897.50;4901343;29;20043;-62
2022/08/28 08:40:31;;;;;;;11.15;5.35;;;;;;;27.60;43.80;94837.50;4902423;28;20037;-71
2022/08/28 08:42:56;;;;;;;14.27;6.32;;;;;;;28.29;43.08;94890.88;4918350;28;20039;-61
2022/08/28 08:45:25;;;;;;;11.82;5.82;;;;;;;28.47;43.12;94884.34;4902005;28;20115;-62
2022/08/28 08:47:51;;;;;;;8.77;5.38;;;;;;;28.44;43.19;94886.16;4913727;28;20043;-63
2022/08/28 08:50:26;;;;;;;12.20;5.38;;;;;;;27.59;43.12;94781.13;4905946;28;20066;-63
2022/08/28 08:53:13;;;;;;;11.82;5.40;;;;;;;28.57;42.97;94882.53;4920092;28;20051;-67
2022/08/28 08:55:46;;;;;;;9.52;5.57;;;;;;;28.58;42.53;94878.50;4921365;28;20036;-67
2022/08/28 08:58:38;;;;;;;10.80;5.13;;;;;;;28.70;42.31;94879.63;4919086;28;20767;-65
2022/08/28 09:01:19;;;;;;;9.18;5.38;;;;;;;28.73;42.39;94880.03;4920198;28;20031;-66
2022/08/28 09:04:07;;;;;;;9.80;5.53;;;;;;;28.71;42.23;94875.63;4924418;28;20053;-66
2022/08/28 09:06:55;;;;;;;10.95;5.18;;;;;;;28.69;42.08;94864.44;4917916;28;20066;-64
2022/08/28 09:09:27;;;;;;;7.95;5.18;;;;;;;28.91;42.26;94878.94;4905913;28;20043;-65
2022/08/28 09:11:55;;;;;;;10.55;5.88;;;;;;;28.81;42.58;94874.53;4920169;28;20043;-69
2022/08/28 09:14:33;;;;;;;9.80;5.63;;;;;;;28.90;42.33;94882.25;4919199;28;20059;-67
2022/08/28 09:16:59;;;;;;;10.20;5.30;;;;;;;28.73;42.73;94869.03;4931566;28;20054;-67
2022/08/28 09:19:24;;;;;;;9.30;5.28;;;;;;;28.82;43.08;94876.72;4904075;28;22224;-69
2022/08/28 09:21:50;;;;;;;13.63;5.30;;;;;;;28.80;43.48;94879.31;4915908;28;20040;-66
2022/08/28 09:24:37;;;;;;;9.13;5.28;;;;;;;28.58;42.65;94818.03;4919993;28;20134;-67
2022/08/28 09:27:07;;;;;;;10.80;5.82;;;;;;;29.09;42.32;94877.09;4921907;28;20134;-65
2022/08/28 09:29:37;;;;;;;11.10;5.82;;;;;;;28.92;42.63;94852.16;4917231;28;20048;-65
2022/08/28 09:32:40;;;;;;;15.20;6.05;;;;;;;29.00;43.04;94869.41;4915648;28;20079;-65
2022/08/28 09:35:30;;;;;;;11.30;5.55;;;;;;;28.94;42.81;94861.34;4906911;28;20044;-67
2022/08/28 09:38:16;;;;;;;10.48;5.50;;;;;;;28.81;42.22;94836.78;4969128;28;20550;-63
2022/08/28 09:43:25;;;;;;;12.52;5.63;;;;;;;29.08;42.20;94848.88;4913735;28;20063;-68
2022/08/28 09:45:58;;;;;;;9.98;5.80;;;;;;;29.21;41.68;94865.19;4910827;28;20032;-67
2022/08/28 09:48:30;;;;;;;14.10;6.00;;;;;;;29.31;41.39;94860.59;4912698;28;20383;-68
2022/08/28 09:51:01;;;;;;;9.27;5.47;;;;;;;29.06;41.06;94812.19;4912635;28;20060;-68
2022/08/28 09:53:29;;;;;;;9.32;5.30;;;;;;;29.30;41.01;94853.66;4913774;28;20158;-68
2022/08/28 09:56:16;;;;;;;10.60;5.43;;;;;;;29.21;41.24;94848.69;4908629;28;20079;-67
2022/08/28 09:59:05;;;;;;;9.95;5.72;;;;;;;29.28;41.45;94845.97;4910076;28;20047;-63
2022/08/28 10:01:41;;;;;;;10.18;5.20;;;;;;;28.95;40.90;94791.34;4912187;28;20059;-67
2022/08/28 10:04:23;;;;;;;11.27;5.30;;;;;;;29.39;41.13;94844.84;4919482;28;20024;-71
2022/08/28 10:07:01;;;;;;;14.32;5.78;;;;;;;28.91;40.83;94795.72;4899699;28;20031;-69
2022/08/28 10:09:54;;;;;;;8.95;5.45;;;;;;;29.39;40.91;94836.59;4923765;28;20144;-72
2022/08/28 10:12:34;;;;;;;11.65;5.40;;;;;;;29.28;40.52;94840.47;4924920;28;20119;-67
2022/08/28 10:15:21;;;;;;;13.63;5.47;;;;;;;28.79;41.38;94770.63;4922535;28;20058;-66
2022/08/28 10:18:11;;;;;;;9.38;5.78;;;;;;;29.39;40.69;94833.84;4918874;28;20043;-65
2022/08/28 10:20:52;;;;;;;11.15;5.30;;;;;;;29.41;40.96;94831.25;4920749;28;20135;-66
2022/08/28 10:23:20;;;;;;;11.13;5.30;;;;;;;29.42;40.93;94827.22;4903798;29;20055;-66
2022/08/28 10:26:10;;;;;;;11.73;5.07;;;;;;;29.43;40.66;94823.91;4920440;28;20043;-64
2022/08/28 10:29:06;;;;;;;8.20;5.60;;;;;;;29.43;40.12;94812.91;4920765;28;20134;-65
2022/08/28 10:31:56;;;;;;;8.38;5.40;;;;;;;29.34;40.32;94801.72;4933643;28;20686;-66
2022/08/28 10:34:33;;;;;;;9.02;5.60;;;;;;;29.44;40.17;94817.09;4878647;28;20045;-65
2022/08/28 10:37:11;;;;;;;8.25;4.82;;;;;;;29.38;40.69;94815.84;4909583;28;20047;-65
2022/08/28 10:39:49;;;;;;;9.45;4.90;;;;;;;29.50;39.81;94816.94;4908444;28;20116;-70
2022/08/28 10:42:25;;;;;;;9.38;4.70;;;;;;;29.56;39.72;94814.72;4891987;28;20048;-65
2022/08/28 10:44:58;;;;;;;9.43;5.30;;;;;;;29.54;39.87;94822.78;4903035;28;20039;-62
2022/08/28 10:47:24;;;;;;;7.95;4.55;;;;;;;29.55;39.88;94807.72;4911133;28;20485;-66
2022/08/28 10:49:51;;;;;;;13.10;5.28;;;;;;;29.60;40.07;94820.56;4919729;28;20048;-65
2022/08/28 10:52:27;;;;;;;13.85;5.50;;;;;;;29.59;40.29;94819.09;4906391;28;20036;-64
2022/08/28 10:55:12;;;;;;;11.32;5.47;;;;;;;29.69;39.96;94818.69;4903688;28;20699;-65
2022/08/28 10:57:43;;;;;;;11.07;5.90;;;;;;;29.69;39.66;94812.47;4923651;28;20098;-63
2022/08/28 11:00:14;;;;;;;11.07;5.60;;;;;;;29.60;39.20;94809.56;4907345;28;20060;-65
2022/08/28 11:02:42;;;;;;;9.68;5.72;;;;;;;29.64;38.94;94818.16;4909650;28;20106;-63
2022/08/28 11:05:09;;;;;;;9.90;5.10;;;;;;;29.71;39.79;94815.38;4905087;28;20534;-65
2022/08/28 11:07:40;;;;;;;8.02;4.70;;;;;;;29.81;39.27;94803.25;4913366;28;20712;-63
2022/08/28 11:10:27;;;;;;;9.85;5.18;;;;;;;29.84;38.76;94806.94;4916853;28;20030;-66
2022/08/28 11:12:53;;;;;;;7.80;5.00;;;;;;;29.33;38.67;94742.50;4914617;28;20036;-66
2022/08/28 11:15:36;;;;;;;8.35;4.97;;;;;;;29.82;38.52;94801.97;4903649;28;20039;-67
2022/08/28 11:18:17;;;;;;;6.22;4.90;;;;;;;29.92;38.28;94797.34;4912995;28;20046;-66
2022/08/28 11:21:05;;;;;;;8.40;5.38;;;;;;;29.90;38.81;94796.44;4912392;28;20547;-65
2022/08/28 11:23:45;;;;;;;8.75;4.70;;;;;;;29.82;37.89;94799.22;4909525;28;20167;-65
2022/08/28 11:26:11;;;;;;;8.82;5.22;;;;;;;29.82;37.88;94792.97;4912189;28;20047;-66
2022/08/28 11:28:42;;;;;;;8.88;5.05;;;;;;;29.73;37.63;94764.00;4905853;28;20048;-67
2022/08/28 11:31:08;;;;;;;8.43;4.82;;;;;;;30.04;37.71;94792.88;4912343;28;20027;-69
2022/08/28 11:33:44;;;;;;;9.10;4.45;;;;;;;29.73;37.51;94749.47;4919984;28;20028;-68
2022/08/28 11:36:18;;;;;;;7.05;4.75;;;;;;;30.11;37.48;94781.09;4926451;28;20075;-66
2022/08/28 11:38:44;;;;;;;9.00;5.00;;;;;;;29.91;37.80;94784.88;4922062;28;20070;-65
2022/08/28 11:41:24;;;;;;;8.68;4.95;;;;;;;30.05;37.50;94788.09;4916002;28;20099;-66
2022/08/28 11:44:12;;;;;;;8.98;5.45;;;;;;;30.08;37.90;94784.22;4924478;28;20044;-67